Time;durP1;ratioP1;P1;durP2;ratioP2;P2;SDS_P1;SDS_P2;PMS_P1;PMS_P2;Temp;Humidity;BMP_temperature;BMP_pressure;BME280_temperature;BME280_humidity;BME280_pressure;Samples;Min_cycle;Max_cycle;Signal;HPM_P1;HPM_P2
2022/06/05 00:04:08;;;;;;;2.73;2.43;;;;;;;18.06;78.19;97941.06;5201778;28;20232;-83
2022/06/05 00:07:31;;;;;;;3.07;2.70;;;;;;;18.12;77.91;97958.25;6230989;28;20327;-83
2022/06/05 00:10:39;;;;;;;3.73;2.50;;;;;;;18.19;77.75;97953.91;6232332;28;20236;-83
2022/06/05 00:13:52;;;;;;;2.27;2.03;;;;;;;18.23;77.26;97955.25;6228523;28;20264;-83
2022/06/05 00:16:54;;;;;;;2.47;2.27;;;;;;;18.22;77.54;97966.13;6210948;28;20240;-83
2022/06/05 00:19:56;;;;;;;2.60;2.40;;;;;;;18.14;77.81;97958.94;6232331;28;20231;-84
2022/06/05 00:22:58;;;;;;;2.33;2.13;;;;;;;18.18;77.68;97957.56;6232554;28;20223;-83
2022/06/05 00:26:07;;;;;;;4.70;2.53;;;;;;;18.24;77.67;97959.63;6233808;28;20240;-83
2022/06/05 00:29:15;;;;;;;2.00;1.90;;;;;;;18.24;77.63;97948.09;6232054;28;20231;-83
2022/06/05 00:32:27;;;;;;;2.90;2.60;;;;;;;18.19;77.69;97955.75;6232727;28;20655;-83
2022/06/05 00:35:33;;;;;;;2.20;2.00;;;;;;;18.08;77.67;97959.56;6231762;28;20228;-83
2022/06/05 00:38:40;;;;;;;2.43;2.23;;;;;;;18.02;77.86;97953.03;6233255;28;20707;-83
2022/06/05 00:41:52;;;;;;;2.50;2.40;;;;;;;17.93;78.31;97961.19;6214421;28;20254;-83
2022/06/05 00:45:00;;;;;;;3.13;2.40;;;;;;;17.82;78.52;97956.16;6231263;28;20224;-82
2022/06/05 00:48:02;;;;;;;4.03;2.40;;;;;;;17.63;78.95;97947.41;6231391;28;20286;-83
2022/06/05 00:51:04;;;;;;;2.47;2.27;;;;;;;17.50;79.37;97957.66;6231736;28;20261;-82
2022/06/05 00:54:06;;;;;;;3.03;2.83;;;;;;;17.51;79.41;97955.81;6231688;28;20215;-83
2022/06/05 00:57:11;;;;;;;3.00;2.80;;;;;;;17.49;79.49;97947.97;6228032;28;20217;-83
2022/06/05 01:04:49;;;;;;;3.23;2.97;;;;;;;17.24;80.16;97948.88;6173740;28;20323;-83
2022/06/05 01:07:52;;;;;;;3.50;3.20;;;;;;;17.18;80.25;97944.13;6230172;28;20232;-83
2022/06/05 01:11:17;;;;;;;3.20;2.93;;;;;;;17.22;80.12;97956.19;6214139;28;20235;-83
2022/06/05 01:14:36;;;;;;;3.47;2.90;;;;;;;17.11;80.30;97948.44;6228758;28;20245;-83
2022/06/05 01:17:52;;;;;;;3.20;2.90;;;;;;;16.96;80.99;97943.72;6224847;28;20329;-83
2022/06/05 01:21:19;;;;;;;3.87;3.40;;;;;;;16.82;81.73;97941.59;6238078;28;20367;-83
2022/06/05 01:24:46;;;;;;;4.13;3.40;;;;;;;16.72;82.00;97935.53;6229945;28;20273;-83
2022/06/05 01:27:55;;;;;;;4.17;3.20;;;;;;;16.64;82.62;97937.28;6213486;28;20267;-82
2022/06/05 01:31:10;;;;;;;3.57;3.27;;;;;;;16.49;83.76;97939.63;6231438;28;20228;-82
2022/06/05 01:34:16;;;;;;;4.60;4.10;;;;;;;16.42;83.74;97935.91;6205573;28;20229;-83
2022/06/05 01:37:31;;;;;;;4.17;3.77;;;;;;;16.44;83.85;97934.78;6215790;28;20262;-83
2022/06/05 01:40:45;;;;;;;4.47;4.07;;;;;;;16.54;83.37;97940.00;6221770;28;20283;-83
2022/06/05 01:43:55;;;;;;;3.83;3.43;;;;;;;16.64;83.37;97935.47;6228587;28;20746;-83
2022/06/05 01:47:04;;;;;;;3.10;2.80;;;;;;;16.68;82.90;97942.13;6229897;28;20306;-83
2022/06/05 01:50:30;;;;;;;3.80;2.93;;;;;;;16.58;82.92;97931.53;6211726;28;20235;-83
2022/06/05 01:53:38;;;;;;;4.80;3.77;;;;;;;16.48;83.04;97930.78;6223094;28;20315;-83
2022/06/05 01:56:46;;;;;;;3.83;3.53;;;;;;;16.50;83.53;97925.31;6232171;28;20260;-83
2022/06/05 01:59:56;;;;;;;3.67;3.37;;;;;;;16.50;83.19;97922.66;6222229;28;20321;-82
2022/06/05 02:03:21;;;;;;;3.53;3.23;;;;;;;16.49;83.20;97929.81;6229492;28;20326;-83
2022/06/05 02:06:38;;;;;;;4.03;3.17;;;;;;;16.43;83.18;97917.13;6229423;28;20647;-83
2022/06/05 02:10:09;;;;;;;4.37;3.57;;;;;;;16.29;83.96;97907.00;6229977;28;20224;-83
2022/06/05 02:13:11;;;;;;;4.47;4.07;;;;;;;16.26;84.22;97909.13;6205708;28;20228;-83
2022/06/05 02:16:13;;;;;;;5.93;3.87;;;;;;;16.27;84.49;97906.31;6231163;28;20290;-83
2022/06/05 02:19:21;;;;;;;4.40;4.00;;;;;;;16.29;84.46;97904.31;6238200;28;20243;-83
2022/06/05 02:22:29;;;;;;;4.70;4.30;;;;;;;16.34;84.26;97902.06;6219074;28;20394;-83
2022/06/05 02:25:34;;;;;;;4.43;3.87;;;;;;;16.37;84.29;97912.38;6230358;28;20267;-82
2022/06/05 02:28:38;;;;;;;5.27;3.90;;;;;;;16.40;83.92;97916.56;6221603;28;20247;-82
2022/06/05 02:32:06;;;;;;;4.00;3.60;;;;;;;16.41;83.64;97913.75;6226919;28;20312;-82
2022/06/05 02:35:19;;;;;;;4.23;3.83;;;;;;;16.38;83.35;97910.56;6227939;28;20326;-83
2022/06/05 02:38:51;;;;;;;4.53;3.70;;;;;;;16.29;83.59;97907.00;6229604;28;20714;-83
2022/06/05 02:42:15;;;;;;;4.17;3.77;;;;;;;16.26;83.71;97898.50;6212976;28;20293;-83
2022/06/05 02:45:26;;;;;;;3.93;3.47;;;;;;;16.25;83.72;97905.63;6208206;28;20272;-83
2022/06/05 02:48:35;;;;;;;4.97;3.63;;;;;;;16.26;83.53;97917.13;6228788;28;20235;-83
2022/06/05 02:51:42;;;;;;;4.03;3.73;;;;;;;16.27;83.40;97924.13;6229574;28;20234;-83
2022/06/05 02:54:57;;;;;;;4.50;4.10;;;;;;;16.25;83.34;97929.59;6245440;28;20254;-83
2022/06/05 02:57:59;;;;;;;4.50;4.10;;;;;;;16.20;83.33;97923.88;6206713;28;20867;-82
2022/06/05 03:04:22;;;;;;;3.87;3.50;;;;;;;16.12;83.29;97934.47;6238365;28;20243;-83
2022/06/05 03:07:25;;;;;;;5.13;4.00;;;;;;;16.10;83.34;97939.09;6229553;28;20236;-83
2022/06/05 03:10:27;;;;;;;4.17;3.80;;;;;;;16.06;83.34;97937.75;6230099;28;20265;-83
2022/06/05 03:13:29;;;;;;;4.73;3.80;;;;;;;16.03;83.37;97941.53;6227778;28;20342;-83
2022/06/05 03:16:31;;;;;;;4.67;4.27;;;;;;;15.95;83.13;97961.91;6228079;28;20230;-83
2022/06/05 03:19:33;;;;;;;4.77;4.37;;;;;;;15.88;83.29;97956.34;6227983;28;20285;-82
2022/06/05 03:22:35;;;;;;;4.90;4.50;;;;;;;15.83;83.43;97958.63;6224150;28;20232;-83
2022/06/05 03:25:42;;;;;;;5.27;4.43;;;;;;;15.81;83.21;97955.25;6219824;28;20236;-83
2022/06/05 03:28:44;;;;;;;4.50;4.10;;;;;;;15.86;83.50;97956.50;6228160;28;20238;-83
2022/06/05 03:31:46;;;;;;;5.20;4.70;;;;;;;15.95;83.05;97961.91;6213547;28;20326;-83
2022/06/05 03:34:48;;;;;;;5.07;4.67;;;;;;;15.98;82.84;97956.28;6233940;28;20232;-83
2022/06/05 03:37:50;;;;;;;5.33;4.83;;;;;;;15.95;82.96;97954.78;6226936;28;20262;-83
2022/06/05 03:40:52;;;;;;;5.80;5.30;;;;;;;16.00;82.98;97954.31;6229092;28;20579;-83
2022/06/05 03:43:54;;;;;;;5.10;4.70;;;;;;;16.06;82.96;97951.06;6228580;28;20742;-82
2022/06/05 03:46:56;;;;;;;5.17;4.77;;;;;;;16.11;82.89;97960.25;6229698;28;20605;-83
2022/06/05 03:49:59;;;;;;;4.80;4.30;;;;;;;16.15;82.99;97958.97;6226894;28;20234;-82
2022/06/05 03:53:01;;;;;;;5.57;5.07;;;;;;;16.20;82.78;97966.50;6227509;28;20235;-82
2022/06/05 03:56:09;;;;;;;5.27;4.87;;;;;;;16.18;82.53;97957.81;6229739;28;20238;-84
2022/06/05 03:59:11;;;;;;;5.43;4.93;;;;;;;16.22;83.04;97953.88;6224113;28;20719;-83
2022/06/05 04:02:13;;;;;;;5.17;4.77;;;;;;;16.21;82.35;97955.69;6212980;28;20308;-85
2022/06/05 04:05:18;;;;;;;5.63;5.07;;;;;;;16.16;82.37;97962.47;6214168;28;20231;-84
2022/06/05 04:08:20;;;;;;;5.93;5.33;;;;;;;16.12;82.40;97958.44;6233742;28;20252;-83
2022/06/05 04:11:23;;;;;;;5.30;4.90;;;;;;;16.14;82.75;97957.31;6237936;28;20649;-84
2022/06/05 04:14:25;;;;;;;5.47;4.63;;;;;;;16.19;82.66;97959.50;6236635;28;20381;-83
2022/06/05 04:17:27;;;;;;;5.37;4.90;;;;;;;16.24;82.42;97960.72;6232549;28;20781;-83
2022/06/05 04:20:29;;;;;;;6.00;5.03;;;;;;;16.30;82.49;97963.75;6224082;28;20266;-83
2022/06/05 04:23:31;;;;;;;5.80;5.23;;;;;;;16.34;82.67;97952.66;6226653;28;20227;-83
2022/06/05 04:26:34;;;;;;;5.97;5.30;;;;;;;16.39;82.44;97944.19;6231805;28;20311;-83
2022/06/05 04:29:36;;;;;;;5.20;4.70;;;;;;;16.40;82.51;97940.53;6222174;28;20276;-82
2022/06/05 04:32:38;;;;;;;5.37;4.80;;;;;;;16.41;82.64;97936.91;6216792;28;20239;-83
2022/06/05 04:35:40;;;;;;;5.60;5.10;;;;;;;16.41;82.62;97939.56;6231115;28;20327;-83
2022/06/05 04:38:43;;;;;;;5.40;5.00;;;;;;;16.45;82.60;97932.94;6231601;28;20235;-82
2022/06/05 04:41:46;;;;;;;5.90;5.30;;;;;;;16.50;82.28;97936.81;6231723;28;20330;-83
2022/06/05 04:44:48;;;;;;;6.03;5.53;;;;;;;16.51;82.44;97934.97;6222766;28;20239;-83
2022/06/05 04:47:51;;;;;;;5.37;4.90;;;;;;;16.53;82.34;97938.34;6207549;28;20256;-83
2022/06/05 04:50:53;;;;;;;5.80;5.33;;;;;;;16.57;82.38;97929.03;6223077;28;20602;-83
2022/06/05 04:53:56;;;;;;;6.00;5.43;;;;;;;16.60;82.02;97937.56;6246880;28;20239;-83
2022/06/05 04:56:58;;;;;;;5.53;5.13;;;;;;;16.64;82.20;97937.28;6232679;28;20746;-83
2022/06/05 05:00:00;;;;;;;5.83;5.33;;;;;;;16.68;82.03;97942.13;6231785;28;20227;-83
2022/06/05 05:03:02;;;;;;;6.03;5.53;;;;;;;16.71;82.02;97949.84;6247928;28;20297;-83
2022/06/05 05:06:06;;;;;;;6.13;5.47;;;;;;;16.74;82.43;97944.22;6247663;28;20605;-83
2022/06/05 05:09:08;;;;;;;5.63;5.13;;;;;;;16.84;82.28;97941.44;6231808;28;20680;-83
2022/06/05 05:12:10;;;;;;;6.87;6.27;;;;;;;16.98;81.78;97941.69;6230713;28;20265;-83
2022/06/05 05:15:12;;;;;;;6.77;6.17;;;;;;;17.15;81.46;97949.81;6232171;28;20334;-82
2022/06/05 05:18:14;;;;;;;6.93;6.33;;;;;;;17.27;81.15;97946.69;6206524;28;20208;-83
2022/06/05 05:21:19;;;;;;;6.60;6.10;;;;;;;17.28;80.98;97937.69;6190085;28;20216;-83
2022/06/05 05:24:21;;;;;;;6.47;5.87;;;;;;;17.37;80.98;97935.09;6202995;28;20244;-83
2022/06/05 05:27:23;;;;;;;7.73;7.07;;;;;;;17.49;80.87;97937.31;6225054;28;20285;-83
2022/06/05 05:30:26;;;;;;;6.97;6.27;;;;;;;17.56;80.48;97945.53;6230509;28;20220;-83
2022/06/05 05:33:28;;;;;;;7.47;6.87;;;;;;;17.69;80.81;97944.09;6206197;28;20240;-83
2022/06/05 05:36:30;;;;;;;7.87;7.17;;;;;;;17.85;80.26;97942.50;6205528;28;20355;-83
2022/06/05 05:42:52;;;;;;;8.20;7.50;;;;;;;18.20;79.65;97938.72;6215140;28;20315;-83
2022/06/05 05:45:54;;;;;;;9.03;8.23;;;;;;;18.37;78.80;97930.53;6218384;28;20223;-83
2022/06/05 05:48:56;;;;;;;11.23;9.17;;;;;;;18.55;78.33;97924.22;6229216;28;20220;-83
2022/06/05 05:51:58;;;;;;;9.70;8.70;;;;;;;18.73;77.39;97919.56;6207058;28;20294;-83
2022/06/05 05:55:01;;;;;;;8.93;8.13;;;;;;;18.91;77.48;97914.03;6239663;28;20710;-83
2022/06/05 05:58:10;;;;;;;9.30;8.50;;;;;;;19.14;76.16;97918.50;6229273;28;20277;-83
2022/06/05 06:01:12;;;;;;;9.47;8.57;;;;;;;19.26;75.41;97913.63;6229204;28;20675;-83
2022/06/05 06:04:14;;;;;;;10.10;9.20;;;;;;;19.36;73.82;97922.28;6237259;28;21717;-83
2022/06/05 06:07:16;;;;;;;9.43;8.63;;;;;;;19.44;73.56;97921.41;6225537;28;20273;-83
2022/06/05 06:10:19;;;;;;;8.87;8.17;;;;;;;19.58;73.54;97922.56;6228971;28;20239;-83
2022/06/05 06:13:22;;;;;;;11.47;10.40;;;;;;;19.67;72.46;97916.16;6229252;28;20358;-83
2022/06/05 06:16:26;;;;;;;10.93;9.97;;;;;;;19.60;71.53;97913.34;6228851;28;20240;-83
2022/06/05 06:19:28;;;;;;;11.00;10.00;;;;;;;19.66;70.69;97917.19;6230512;28;20712;-83
2022/06/05 06:22:31;;;;;;;11.07;9.97;;;;;;;19.74;70.06;97926.00;6228611;28;20330;-83
2022/06/05 06:25:33;;;;;;;11.30;10.30;;;;;;;19.92;69.71;97927.59;6245346;28;20228;-84
2022/06/05 06:28:35;;;;;;;10.03;9.03;;;;;;;20.13;68.68;97923.28;6212615;28;20228;-83
2022/06/05 06:31:39;;;;;;;9.50;8.70;;;;;;;20.23;69.02;97917.69;6228795;28;20730;-83
2022/06/05 06:34:41;;;;;;;10.93;10.03;;;;;;;20.33;67.82;97915.59;6228751;28;20707;-83
2022/06/05 06:37:43;;;;;;;10.73;9.83;;;;;;;20.55;66.85;97917.47;6228567;28;20232;-83
2022/06/05 06:40:45;;;;;;;11.53;10.43;;;;;;;20.92;65.52;97913.13;6236074;28;20709;-83
2022/06/05 06:43:53;;;;;;;10.07;9.27;;;;;;;21.06;64.93;97909.63;6212193;28;20236;-83
2022/06/05 06:46:55;;;;;;;9.37;8.57;;;;;;;21.29;64.43;97910.41;6209718;28;20219;-83
2022/06/05 06:49:57;;;;;;;10.07;9.07;;;;;;;21.58;63.02;97912.25;6228383;28;20390;-83
2022/06/05 06:52:59;;;;;;;10.07;9.17;;;;;;;21.84;61.81;97909.06;6244473;28;20258;-83
2022/06/05 06:56:23;;;;;;;9.33;8.53;;;;;;;22.11;61.86;97922.84;6227237;28;20231;-83
2022/06/05 06:59:29;;;;;;;11.93;10.77;;;;;;;21.87;60.62;97915.91;6236480;28;20232;-83
2022/06/05 07:02:31;;;;;;;10.47;9.57;;;;;;;22.00;60.10;97908.03;6215869;28;20264;-83
2022/06/05 07:05:33;;;;;;;8.67;7.97;;;;;;;22.16;59.48;97915.03;6212872;28;20231;-83
2022/06/05 07:08:36;;;;;;;10.43;9.43;;;;;;;22.12;59.32;97901.13;6227499;28;20234;-83
2022/06/05 07:11:38;;;;;;;9.23;8.50;;;;;;;22.50;59.13;97896.34;6227393;28;20231;-83
2022/06/05 07:14:40;;;;;;;10.23;9.37;;;;;;;22.22;59.54;97898.13;6227873;28;20250;-83
2022/06/05 07:17:42;;;;;;;11.30;10.20;;;;;;;22.28;59.89;97900.03;6229329;28;20227;-83
2022/06/05 07:20:45;;;;;;;9.13;8.37;;;;;;;22.70;58.54;97900.03;6228113;28;20278;-83
2022/06/05 07:23:48;;;;;;;9.53;8.63;;;;;;;23.01;57.53;97901.53;6218869;28;20228;-83
2022/06/05 07:26:50;;;;;;;8.47;7.77;;;;;;;23.06;57.90;97901.78;6228975;28;20227;-83
2022/06/05 07:29:53;;;;;;;10.43;9.50;;;;;;;23.09;56.99;97896.84;6227381;28;20228;-83
2022/06/05 07:32:55;;;;;;;10.87;9.87;;;;;;;22.93;57.94;97891.75;6227591;28;20220;-84
2022/06/05 07:35:59;;;;;;;10.53;9.47;;;;;;;22.88;57.82;97894.19;6243901;28;20266;-83
2022/06/05 07:39:03;;;;;;;8.77;8.07;;;;;;;23.13;57.99;97889.22;6243510;28;20220;-83
2022/06/05 07:42:05;;;;;;;10.43;9.43;;;;;;;22.78;58.16;97891.00;6243791;28;20606;-83
2022/06/05 07:45:10;;;;;;;10.90;10.00;;;;;;;23.33;57.29;97892.84;6212143;28;20297;-84
2022/06/05 07:48:13;;;;;;;9.50;8.70;;;;;;;23.70;55.52;97882.69;6232490;28;20216;-83
2022/06/05 07:54:44;;;;;;;7.73;7.13;;;;;;;24.92;53.07;97888.78;6233062;28;20601;-83
2022/06/05 07:57:46;;;;;;;7.43;6.73;;;;;;;25.43;52.59;97888.06;6224590;28;20220;-84
2022/06/05 08:00:48;;;;;;;8.17;7.37;;;;;;;25.03;52.45;97885.44;6241021;28;20320;-83
2022/06/05 08:03:50;;;;;;;7.60;7.00;;;;;;;25.26;52.92;97883.09;6231690;28;20601;-83
2022/06/05 08:06:57;;;;;;;8.18;7.47;;;;;;;25.63;50.54;97880.75;6233152;28;20223;-83
2022/06/05 08:10:01;;;;;;;7.60;7.00;;;;;;;25.80;49.76;97867.56;6237016;28;20579;-84
2022/06/05 08:13:04;;;;;;;8.50;7.80;;;;;;;25.84;48.35;97882.34;6231543;28;20223;-83
2022/06/05 08:16:06;;;;;;;7.78;7.07;;;;;;;25.47;47.72;97887.41;6232545;28;20313;-84
2022/06/05 08:19:08;;;;;;;7.93;7.20;;;;;;;25.61;48.44;97875.56;6233665;28;20234;-83
2022/06/05 08:22:12;;;;;;;7.45;6.85;;;;;;;25.86;47.89;97866.69;6231630;28;20715;-83
2022/06/05 08:25:14;;;;;;;6.50;5.82;;;;;;;25.63;47.20;97869.94;6232814;28;20734;-84
2022/06/05 08:28:16;;;;;;;6.35;5.85;;;;;;;25.97;46.71;97866.03;6214274;28;20242;-84
2022/06/05 08:31:21;;;;;;;7.32;6.72;;;;;;;26.32;46.58;97864.59;6214560;28;20228;-84
2022/06/05 08:34:24;;;;;;;6.78;6.18;;;;;;;26.12;47.02;97863.88;6231051;28;20773;-84
2022/06/05 08:41:27;;;;;;;6.32;5.75;;;;;;;27.40;46.49;97862.41;6158805;28;20376;-84
2022/06/05 08:44:53;;;;;;;7.35;5.50;;;;;;;27.57;45.01;97854.53;6232773;28;20716;-85
2022/06/05 08:47:57;;;;;;;6.28;5.78;;;;;;;27.78;44.54;97842.38;6215886;28;20323;-85
2022/06/05 08:51:12;;;;;;;6.97;6.38;;;;;;;27.86;42.42;97842.88;6230298;28;20250;-85
2022/06/05 08:54:22;;;;;;;6.90;6.30;;;;;;;27.68;42.65;97837.50;6230153;28;20647;-84
2022/06/05 08:57:44;;;;;;;6.10;5.70;;;;;;;27.36;43.75;97834.09;6230571;28;20760;-85
2022/06/05 09:00:50;;;;;;;5.80;5.30;;;;;;;27.18;45.13;97829.50;6240929;28;20674;-85
2022/06/05 09:04:18;;;;;;;5.78;5.15;;;;;;;27.25;43.61;97831.31;6233060;28;20235;-85
2022/06/05 09:07:33;;;;;;;5.40;5.00;;;;;;;28.01;44.30;97828.09;6248082;28;20374;-84
2022/06/05 09:10:48;;;;;;;5.70;5.30;;;;;;;28.84;42.70;97823.47;6230800;28;20235;-84
2022/06/05 09:13:57;;;;;;;4.72;4.30;;;;;;;29.01;39.75;97826.31;6246518;28;20239;-84
2022/06/05 09:17:05;;;;;;;5.03;4.60;;;;;;;28.21;39.43;97815.91;6230485;28;20722;-84
2022/06/05 09:20:17;;;;;;;4.32;4.03;;;;;;;28.63;39.42;97807.72;6229800;28;20231;-84
2022/06/05 09:23:41;;;;;;;4.32;4.03;;;;;;;29.21;38.99;97820.50;6229875;28;20231;-84
2022/06/05 09:26:51;;;;;;;4.97;4.57;;;;;;;29.43;39.06;97815.28;6212924;28;20233;-84
2022/06/05 09:30:17;;;;;;;4.88;4.40;;;;;;;30.18;38.95;97806.97;6210230;28;20379;-84
2022/06/05 09:33:23;;;;;;;5.15;4.68;;;;;;;30.52;35.46;97802.38;6205177;28;20232;-85
2022/06/05 09:36:30;;;;;;;4.32;4.03;;;;;;;29.90;37.76;97799.63;6204982;28;20230;-84
2022/06/05 09:39:45;;;;;;;4.50;4.10;;;;;;;30.21;36.58;97790.97;6212484;28;20385;-85
2022/06/05 09:43:16;;;;;;;4.70;4.30;;;;;;;30.42;38.55;97805.75;6229752;28;20216;-85
2022/06/05 09:46:52;;;;;;;3.47;3.17;;;;;;;30.30;35.10;97805.00;6229079;28;20247;-85
2022/06/05 09:49:59;;;;;;;4.32;4.00;;;;;;;29.36;35.03;97802.63;6229506;28;20305;-85
2022/06/05 09:53:01;;;;;;;4.60;4.20;;;;;;;28.90;36.17;97802.66;6224027;28;20256;-84
2022/06/05 09:56:11;;;;;;;4.05;3.75;;;;;;;27.97;37.48;97795.16;6223875;28;20720;-84
2022/06/05 09:59:25;;;;;;;4.47;4.07;;;;;;;28.46;38.50;97796.69;6228797;28;20228;-85
2022/06/05 10:02:28;;;;;;;4.65;4.25;;;;;;;29.65;37.14;97803.50;6246224;28;20219;-85
2022/06/05 10:05:34;;;;;;;4.32;3.92;;;;;;;30.21;36.23;97811.94;6228491;28;20231;-85
2022/06/05 10:08:42;;;;;;;4.88;4.40;;;;;;;30.12;35.19;97797.91;6229600;28;20236;-85
2022/06/05 10:12:03;;;;;;;4.75;4.35;;;;;;;30.18;36.50;97798.78;6229955;28;20228;-85
2022/06/05 10:15:28;;;;;;;4.10;3.80;;;;;;;30.51;35.57;97790.66;6228356;28;20305;-85
2022/06/05 10:18:42;;;;;;;4.15;3.80;;;;;;;30.76;36.61;97791.06;6228193;28;20231;-84
2022/06/05 10:21:53;;;;;;;4.72;4.28;;;;;;;30.89;34.87;97786.34;6228114;28;20310;-85
2022/06/05 10:25:21;;;;;;;4.47;4.18;;;;;;;29.49;35.11;97777.06;6229219;28;20370;-84
2022/06/05 10:28:27;;;;;;;4.90;4.50;;;;;;;29.91;36.48;97776.78;6228908;28;20634;-84
2022/06/05 10:31:32;;;;;;;4.22;3.60;;;;;;;30.91;35.71;97776.88;6228651;28;20356;-84
2022/06/05 10:34:53;;;;;;;4.20;3.88;;;;;;;30.56;33.28;97776.31;6229445;28;20770;-85
2022/06/05 10:38:24;;;;;;;3.72;3.42;;;;;;;30.61;35.53;97773.69;6228528;28;20228;-85
2022/06/05 10:41:35;;;;;;;3.17;2.97;;;;;;;31.24;34.13;97772.44;6219683;28;20224;-85
2022/06/05 10:45:01;;;;;;;3.53;3.22;;;;;;;31.81;33.50;97761.94;6210946;28;20230;-85
2022/06/05 10:48:10;;;;;;;3.10;2.90;;;;;;;32.48;32.20;97759.59;6212361;28;20243;-85
2022/06/05 10:51:32;;;;;;;3.20;3.00;;;;;;;31.76;33.49;97756.41;6227799;28;20207;-85
2022/06/05 10:54:49;;;;;;;3.30;3.10;;;;;;;32.30;32.10;97753.69;6228084;28;20228;-84
2022/06/05 10:58:03;;;;;;;3.35;3.00;;;;;;;31.98;31.84;97751.75;6229540;28;20236;-85
2022/06/05 11:01:30;;;;;;;4.43;3.13;;;;;;;32.54;32.27;97750.31;6203769;28;20228;-85
2022/06/05 11:05:43;;;;;;;5.50;4.07;;;;;;;32.33;31.26;97748.53;6226565;28;20239;-85
2022/06/05 11:09:22;;;;;;;4.70;4.30;;;;;;;32.15;30.86;97735.22;6229011;28;20699;-85
2022/06/05 11:16:38;;;;;;;4.32;4.03;;;;;;;33.19;30.44;97729.97;6227480;28;20341;-85
2022/06/05 11:19:55;;;;;;;4.28;3.95;;;;;;;33.13;31.39;97725.56;6230838;28;20316;-85
2022/06/05 11:23:02;;;;;;;4.15;3.85;;;;;;;32.41;31.83;97725.38;6216145;28;20695;-85
2022/06/05 11:26:13;;;;;;;4.45;4.07;;;;;;;32.37;32.33;97730.53;6233344;28;20251;-85
2022/06/05 11:29:25;;;;;;;4.03;3.72;;;;;;;33.04;32.57;97729.91;6233469;28;20649;-85
2022/06/05 11:32:51;;;;;;;5.00;4.60;;;;;;;32.00;32.90;97726.91;6232625;28;20227;-84
2022/06/05 11:35:52;;;;;;;4.50;4.10;;;;;;;31.59;33.30;97715.56;6232449;28;20259;-84
2022/06/05 11:39:13;;;;;;;4.35;3.95;;;;;;;32.16;33.04;97702.19;6234317;28;20227;-84
2022/06/05 11:42:32;;;;;;;4.15;3.85;;;;;;;32.04;32.35;97707.03;6248661;28;20277;-85
2022/06/05 11:45:43;;;;;;;5.88;3.60;;;;;;;32.63;32.68;97696.03;6232615;28;20299;-85
2022/06/05 11:48:57;;;;;;;3.67;3.42;;;;;;;33.27;30.29;97682.16;6231928;28;20259;-85
2022/06/05 11:52:18;;;;;;;3.45;3.15;;;;;;;32.84;29.09;97670.44;6224116;28;20229;-85
2022/06/05 11:55:44;;;;;;;3.28;3.03;;;;;;;32.63;32.51;97676.88;6220754;28;20235;-85
2022/06/05 11:59:18;;;;;;;3.10;2.80;;;;;;;31.99;32.25;97665.19;6227633;28;20263;-85
2022/06/05 12:02:38;;;;;;;3.88;3.58;;;;;;;31.55;33.95;97659.84;6232059;28;20258;-85
2022/06/05 12:05:49;;;;;;;3.80;3.50;;;;;;;31.33;34.10;97662.63;6233199;28;20600;-85
2022/06/05 12:08:56;;;;;;;3.72;3.42;;;;;;;31.59;34.88;97660.97;6231216;28;20246;-85
2022/06/05 12:12:14;;;;;;;3.95;3.65;;;;;;;31.62;35.50;97654.19;6231109;28;20235;-85
2022/06/05 12:15:37;;;;;;;4.00;3.70;;;;;;;31.11;36.25;97661.81;6231238;28;20232;-84
2022/06/05 12:19:07;;;;;;;4.20;3.90;;;;;;;30.98;37.22;97651.25;6231359;28;20235;-84
2022/06/05 12:22:33;;;;;;;4.72;3.60;;;;;;;31.04;37.88;97642.09;6217969;28;20710;-85
2022/06/05 12:25:51;;;;;;;4.32;4.03;;;;;;;30.60;37.47;97642.06;6230885;28;21007;-84
2022/06/05 12:29:03;;;;;;;4.38;4.07;;;;;;;30.93;38.57;97632.13;6231250;28;20235;-85
2022/06/05 12:32:08;;;;;;;4.43;4.03;;;;;;;31.21;37.93;97620.22;6246838;28;20227;-84
2022/06/05 12:35:33;;;;;;;4.90;4.40;;;;;;;31.08;38.53;97624.97;6247426;28;20223;-85
2022/06/05 12:38:48;;;;;;;4.22;3.95;;;;;;;31.32;38.73;97611.06;6221200;28;20305;-85
2022/06/05 12:42:12;;;;;;;4.40;4.03;;;;;;;31.64;38.02;97606.50;6231020;28;20823;-84
2022/06/05 12:45:16;;;;;;;4.40;4.10;;;;;;;31.13;36.47;97607.88;6228302;28;20224;-85
2022/06/05 12:48:24;;;;;;;4.10;3.80;;;;;;;30.98;38.72;97599.47;6231573;28;20451;-85
2022/06/05 12:51:29;;;;;;;4.22;3.92;;;;;;;31.31;39.09;97599.31;6231706;28;20220;-84
2022/06/05 12:54:54;;;;;;;5.03;3.97;;;;;;;32.03;38.37;97593.41;6248298;28;20346;-85
2022/06/05 12:58:21;;;;;;;4.72;4.05;;;;;;;33.13;34.21;97587.97;6207414;28;20232;-84
2022/06/05 13:01:54;;;;;;;3.92;3.63;;;;;;;33.46;31.60;97582.03;6190981;28;20240;-85
2022/06/05 13:05:03;;;;;;;3.85;3.55;;;;;;;34.01;31.69;97575.78;6205825;28;20240;-85
2022/06/05 13:08:41;;;;;;;3.40;3.10;;;;;;;33.93;30.08;97573.59;6246066;28;20714;-85
2022/06/05 13:11:51;;;;;;;3.58;3.20;;;;;;;32.40;31.82;97581.66;6228652;28;20231;-85
2022/06/05 13:15:05;;;;;;;5.15;3.33;;;;;;;31.63;34.48;97571.28;6230293;28;20234;-85
2022/06/05 13:18:32;;;;;;;3.85;3.20;;;;;;;31.60;36.76;97571.75;6230902;28;20228;-85
2022/06/05 13:21:43;;;;;;;4.05;3.75;;;;;;;31.33;36.80;97564.44;6230973;28;20227;-85
2022/06/05 13:25:09;;;;;;;3.70;3.40;;;;;;;30.91;36.92;97569.69;6229959;28;20701;-84
2022/06/05 13:28:31;;;;;;;3.78;3.47;;;;;;;31.26;36.36;97558.34;6229852;28;20244;-84
2022/06/05 13:31:56;;;;;;;3.67;3.20;;;;;;;31.43;38.41;97559.06;6221551;28;20700;-84
2022/06/05 13:35:36;;;;;;;3.22;3.03;;;;;;;31.73;36.70;97554.97;6215330;28;20263;-84
2022/06/05 13:38:42;;;;;;;3.70;3.30;;;;;;;31.03;38.68;97554.03;6226640;28;20231;-84
2022/06/05 13:41:58;;;;;;;3.95;3.55;;;;;;;30.90;39.69;97537.22;6230356;28;20285;-85
2022/06/05 13:45:04;;;;;;;3.78;3.47;;;;;;;31.04;39.82;97535.75;6239830;28;20232;-84
2022/06/05 13:48:14;;;;;;;3.15;2.95;;;;;;;31.21;40.04;97532.94;6213316;28;20327;-84
2022/06/05 13:51:44;;;;;;;3.85;3.00;;;;;;;31.68;36.65;97519.44;6229094;28;20216;-85
2022/06/05 13:54:54;;;;;;;3.55;3.28;;;;;;;32.32;37.50;97524.78;6228725;28;20265;-84
2022/06/05 13:58:33;;;;;;;4.38;3.35;;;;;;;32.39;37.69;97515.25;6229027;28;20742;-84
2022/06/05 14:02:27;;;;;;;3.63;3.40;;;;;;;31.86;36.76;97524.47;6221360;28;20323;-84
2022/06/05 14:05:55;;;;;;;3.70;3.25;;;;;;;32.09;38.04;97528.72;6122026;29;20265;-84
2022/06/05 14:09:01;;;;;;;4.55;4.15;;;;;;;30.95;40.67;97527.19;6130722;29;20235;-84
2022/06/05 14:12:06;;;;;;;3.65;3.35;;;;;;;30.52;41.30;97524.50;6130637;29;20241;-84
2022/06/05 14:15:37;;;;;;;3.67;3.38;;;;;;;29.98;42.34;97519.72;6130730;29;20730;-84
2022/06/05 14:18:49;;;;;;;3.80;3.47;;;;;;;30.01;42.76;97521.97;6113774;29;20234;-84
2022/06/05 14:22:00;;;;;;;3.97;3.67;;;;;;;30.28;42.38;97529.38;6130242;28;20238;-84
2022/06/05 14:25:03;;;;;;;4.32;3.92;;;;;;;30.13;41.50;97521.84;6131175;29;20234;-85
2022/06/05 14:28:08;;;;;;;4.10;3.80;;;;;;;30.32;42.13;97516.91;6130640;29;20290;-84
2022/06/05 14:31:19;;;;;;;3.55;3.33;;;;;;;30.70;41.02;97503.22;6130817;29;20297;-84
2022/06/05 14:34:21;;;;;;;4.18;3.88;;;;;;;31.03;41.22;97487.75;6131694;28;20242;-84
2022/06/05 14:37:45;;;;;;;4.45;3.60;;;;;;;31.69;38.11;97483.72;6153282;28;20226;-84
2022/06/05 14:41:02;;;;;;;3.70;3.50;;;;;;;34.91;33.92;97476.25;6189992;28;20715;-84
2022/06/05 14:44:16;;;;;;;4.00;3.70;;;;;;;32.72;35.97;97466.75;6236000;28;20263;-84
2022/06/05 14:47:47;;;;;;;4.18;3.83;;;;;;;31.66;39.91;97467.84;6198812;28;20283;-84
2022/06/05 14:51:00;;;;;;;4.78;3.92;;;;;;;32.32;38.12;97461.94;6215676;28;20259;-84
2022/06/05 14:57:51;;;;;;;3.70;3.40;;;;;;;31.49;39.93;97457.06;6222097;28;20337;-85
2022/06/05 14:58:12;;;;;;;4.53;3.50;;;;;;;30.68;41.87;97466.41;6229424;28;20263;-85
2022/06/05 15:01:20;;;;;;;3.53;3.22;;;;;;;29.49;42.73;97472.44;6228850;28;20236;-85
2022/06/05 15:04:28;;;;;;;3.80;3.50;;;;;;;28.90;44.88;97485.56;6228258;28;20231;-85
2022/06/05 15:07:55;;;;;;;4.78;3.33;;;;;;;28.58;45.73;97485.22;6227979;28;20240;-85
2022/06/05 15:11:04;;;;;;;3.55;3.30;;;;;;;28.07;47.42;97479.78;6229750;28;20379;-85
2022/06/05 15:14:55;;;;;;;3.83;3.53;;;;;;;28.09;47.07;97467.66;6228076;28;20366;-85
2022/06/05 15:17:58;;;;;;;3.10;2.90;;;;;;;27.98;47.28;97470.38;6164089;28;20801;-85
2022/06/05 15:21:25;;;;;;;3.75;3.45;;;;;;;27.72;48.17;97466.31;6228662;28;20346;-85